Time;durP1;ratioP1;P1;durP2;ratioP2;P2;SDS_P1;SDS_P2;PMS_P1;PMS_P2;Temp;Humidity;BMP_temperature;BMP_pressure;BME280_temperature;BME280_humidity;BME280_pressure;Samples;Min_cycle;Max_cycle;Signal;HPM_P1;HPM_P2
2021/12/14 00:01:47;;;;;;;20.60;6.32;;;;;;;4.70;92.44;97358.13;5110452;28;20532;-75
2021/12/14 00:04:18;;;;;;;28.48;7.45;;;;;;;4.74;92.44;97359.22;5109640;28;20047;-75
2021/12/14 00:06:46;;;;;;;22.80;6.70;;;;;;;4.74;92.54;97353.81;5109899;28;20044;-75
2021/12/14 00:09:23;;;;;;;31.13;8.07;;;;;;;4.71;92.10;97359.75;5109396;28;20051;-75
2021/12/14 00:12:07;;;;;;;21.20;7.20;;;;;;;4.65;92.32;97355.38;5129416;27;20047;-75
2021/12/14 00:17:24;;;;;;;23.42;8.63;;;;;;;4.53;92.90;97352.00;5129647;27;20049;-75
2021/12/14 00:19:54;;;;;;;33.75;8.95;;;;;;;4.57;93.31;97347.75;5129949;27;20051;-75
2021/12/14 00:22:30;;;;;;;29.15;9.27;;;;;;;4.61;93.21;97343.47;5129406;27;20058;-74
2021/12/14 00:24:57;;;;;;;28.17;9.73;;;;;;;4.58;93.13;97338.56;5130282;27;20078;-74
2021/12/14 00:27:25;;;;;;;28.98;10.45;;;;;;;4.63;93.42;97346.72;5129499;27;20417;-75
2021/12/14 00:29:56;;;;;;;37.08;10.75;;;;;;;4.56;92.68;97340.72;5130280;27;20066;-75
2021/12/14 00:32:25;;;;;;;43.35;11.60;;;;;;;4.48;92.57;97341.16;5129498;27;20050;-74
2021/12/14 00:34:58;;;;;;;39.45;11.35;;;;;;;4.41;92.73;97350.28;5130218;27;20126;-76
2021/12/14 00:37:30;;;;;;;36.95;11.18;;;;;;;4.37;92.98;97343.75;5129112;27;20043;-74
2021/12/14 00:39:59;;;;;;;33.05;11.18;;;;;;;4.37;92.95;97332.97;5125924;27;20043;-75
2021/12/14 00:42:27;;;;;;;30.10;10.45;;;;;;;4.33;93.09;97339.97;5108736;28;20048;-75
2021/12/14 00:44:54;;;;;;;29.25;10.35;;;;;;;4.28;93.24;97339.91;5109185;28;20054;-75
2021/12/14 00:47:20;;;;;;;31.90;10.75;;;;;;;4.29;93.40;97340.72;5108247;28;20049;-74
2021/12/14 00:49:47;;;;;;;26.02;9.00;;;;;;;4.38;93.98;97339.19;5109000;28;20114;-74
2021/12/14 00:52:14;;;;;;;29.85;9.73;;;;;;;4.41;93.77;97334.09;5108324;28;20044;-74
2021/12/14 00:54:40;;;;;;;28.13;8.65;;;;;;;4.39;93.14;97340.84;5109220;28;20043;-75
2021/12/14 00:57:08;;;;;;;27.00;9.25;;;;;;;4.34;92.34;97338.91;5108183;28;20404;-75
2021/12/14 00:59:36;;;;;;;29.67;9.32;;;;;;;4.37;92.63;97338.38;5108882;28;20660;-76
2021/12/14 01:02:08;;;;;;;23.50;8.23;;;;;;;4.33;92.16;97342.66;5108406;28;20051;-74
2021/12/14 01:04:39;;;;;;;28.38;8.40;;;;;;;4.32;92.19;97338.31;5108662;28;20163;-74
2021/12/14 01:07:09;;;;;;;22.80;7.88;;;;;;;4.30;92.45;97331.56;5107864;28;20058;-74
2021/12/14 01:09:39;;;;;;;25.20;7.88;;;;;;;4.30;92.42;97339.66;5108426;28;20039;-75
2021/12/14 01:12:13;;;;;;;20.08;7.88;;;;;;;4.30;92.63;97343.16;5108309;28;20052;-76
2021/12/14 01:14:46;;;;;;;24.10;6.72;;;;;;;4.26;92.62;97347.41;5109025;28;20054;-75
2021/12/14 01:17:27;;;;;;;20.02;6.95;;;;;;;4.29;92.58;97356.91;5107969;28;20044;-75
2021/12/14 01:19:58;;;;;;;21.25;7.53;;;;;;;4.27;92.09;97356.31;5108828;28;20134;-75
2021/12/14 01:22:40;;;;;;;23.60;8.02;;;;;;;4.23;91.63;97347.09;5108426;28;20043;-75
2021/12/14 01:25:13;;;;;;;20.67;7.10;;;;;;;4.22;91.95;97346.28;5108066;28;20049;-75
2021/12/14 01:27:42;;;;;;;;;;;;;;;4.25;92.28;97356.59;5108936;28;20043;-75
2021/12/14 01:30:18;;;;;;;22.35;7.13;;;;;;;4.19;91.53;97358.41;5107564;28;19931;-74
2021/12/14 01:32:49;;;;;;;19.13;7.03;;;;;;;4.16;91.62;97358.09;5108095;28;20040;-75
2021/12/14 01:35:20;;;;;;;19.98;7.38;;;;;;;4.16;91.90;97358.09;5107927;28;20051;-75
2021/12/14 01:38:00;;;;;;;22.08;8.05;;;;;;;4.11;90.92;97363.41;5108029;28;20048;-75
2021/12/14 01:43:34;;;;;;;22.00;8.20;;;;;;;4.05;91.15;97367.13;5064895;27;20937;-74
2021/12/14 01:46:09;;;;;;;20.63;7.80;;;;;;;3.99;91.21;97366.25;5064975;28;20052;-74
2021/12/14 01:48:36;;;;;;;22.90;7.90;;;;;;;3.92;91.37;97363.75;5064597;28;20068;-74
2021/12/14 01:51:07;;;;;;;19.58;7.35;;;;;;;3.97;91.57;97364.84;5064513;28;20053;-74
2021/12/14 01:53:35;;;;;;;22.58;7.88;;;;;;;3.94;91.86;97355.41;5064890;28;20186;-74
2021/12/14 01:56:05;;;;;;;26.23;9.02;;;;;;;3.95;91.82;97350.84;5064928;28;20523;-74
2021/12/14 01:58:38;;;;;;;21.65;8.20;;;;;;;3.98;92.20;97359.25;5064033;28;20055;-74
2021/12/14 02:01:07;;;;;;;;;;;;;;;4.02;92.51;97368.47;5064859;28;20756;-74
2021/12/14 02:03:37;;;;;;;24.80;8.05;;;;;;;3.95;91.66;97373.22;5064436;28;19920;-74
2021/12/14 02:06:05;;;;;;;44.70;8.93;;;;;;;3.89;91.00;97369.63;5064584;28;20091;-74
2021/12/14 02:08:33;;;;;;;40.25;8.45;;;;;;;3.78;91.27;97372.44;5064110;28;20052;-75
2021/12/14 02:11:04;;;;;;;26.00;8.88;;;;;;;3.66;91.65;97364.50;5064285;28;20044;-74
2021/12/14 02:13:35;;;;;;;25.02;9.18;;;;;;;3.64;91.79;97367.41;5063872;28;20049;-74
2021/12/14 02:16:03;;;;;;;23.38;9.00;;;;;;;3.66;92.18;97364.50;5064177;28;20431;-72
2021/12/14 02:18:31;;;;;;;34.53;9.43;;;;;;;3.69;92.20;97353.19;5063796;28;20446;-74
2021/12/14 02:21:02;;;;;;;23.17;8.35;;;;;;;3.70;92.37;97354.00;5064424;28;20067;-74
2021/12/14 02:23:30;;;;;;;31.85;8.85;;;;;;;3.72;92.21;97359.97;5067998;28;20488;-74
2021/12/14 02:26:00;;;;;;;35.40;10.32;;;;;;;3.78;92.00;97351.72;5084350;28;20102;-74
2021/12/14 02:28:27;;;;;;;32.22;10.38;;;;;;;3.81;91.98;97362.00;5083711;28;20044;-74
2021/12/14 02:30:56;;;;;;;30.42;9.68;;;;;;;3.84;91.84;97356.09;5084317;28;20061;-74
2021/12/14 02:33:28;;;;;;;37.53;9.95;;;;;;;3.87;92.15;97355.59;5083851;28;20052;-74
2021/12/14 02:35:55;;;;;;;52.17;10.30;;;;;;;3.89;91.63;97364.25;5084801;28;20068;-74
2021/12/14 02:38:23;;;;;;;34.88;11.15;;;;;;;3.87;91.99;97355.59;5083628;28;20063;-74
2021/12/14 02:40:56;;;;;;;58.60;12.23;;;;;;;3.88;91.33;97351.84;5084476;28;20044;-74
2021/12/14 02:43:27;;;;;;;52.03;11.07;;;;;;;3.86;91.64;97361.22;5083200;28;20127;-74
2021/12/14 02:46:02;;;;;;;32.20;10.43;;;;;;;3.87;91.52;97361.00;5084722;28;20049;-74
2021/12/14 02:48:29;;;;;;;31.40;11.07;;;;;;;3.88;91.44;97357.22;5083381;28;20044;-74
2021/12/14 02:50:56;;;;;;;30.20;10.95;;;;;;;3.89;91.68;97348.06;5084255;28;20045;-74
2021/12/14 02:53:24;;;;;;;51.95;11.07;;;;;;;3.88;91.89;97337.56;5077805;28;20070;-74
2021/12/14 02:55:50;;;;;;;40.70;12.05;;;;;;;3.93;91.88;97338.44;5070458;28;20057;-75
2021/12/14 02:58:17;;;;;;;37.85;11.88;;;;;;;4.03;91.55;97331.53;5069563;28;20076;-74
2021/12/14 03:00:47;;;;;;;43.40;11.63;;;;;;;4.03;91.18;97336.94;5070355;28;20045;-73
2021/12/14 03:03:20;;;;;;;38.65;12.85;;;;;;;4.00;90.54;97334.72;5069769;28;20415;-74
2021/12/14 03:05:50;;;;;;;29.35;11.05;;;;;;;3.97;90.52;97335.22;5070308;28;20048;-74
2021/12/14 03:08:19;;;;;;;37.53;11.43;;;;;;;3.91;90.55;97331.66;5069224;28;20606;-74
2021/12/14 03:10:55;;;;;;;30.98;10.70;;;;;;;3.84;90.65;97339.13;5069367;28;20047;-75
2021/12/14 03:13:24;;;;;;;43.50;9.63;;;;;;;3.70;90.48;97332.47;5069551;28;20115;-74
2021/12/14 03:15:53;;;;;;;23.02;9.15;;;;;;;3.66;90.84;97332.16;5069958;28;20067;-74
2021/12/14 03:18:23;;;;;;;38.60;10.15;;;;;;;3.67;91.07;97328.41;5068902;28;20075;-74
2021/12/14 03:20:52;;;;;;;46.20;9.88;;;;;;;3.61;91.24;97330.22;5069856;28;20049;-74
2021/12/14 03:23:22;;;;;;;41.72;11.18;;;;;;;3.45;91.29;97330.28;5069251;28;20542;-74
2021/12/14 03:25:53;;;;;;;31.10;9.82;;;;;;;3.33;91.98;97328.47;5069797;28;20062;-73
2021/12/14 03:28:22;;;;;;;56.92;11.68;;;;;;;3.30;92.23;97329.00;5068955;28;20060;-74
2021/12/14 03:31:00;;;;;;;62.60;11.45;;;;;;;3.30;92.48;97338.94;5069208;28;20049;-74
2021/12/14 03:33:29;;;;;;;52.58;10.73;;;;;;;3.34;92.93;97329.28;5069191;28;20043;-75
2021/12/14 03:36:00;;;;;;;46.92;11.68;;;;;;;3.31;93.14;97336.00;5069603;28;20427;-74
2021/12/14 03:38:30;;;;;;;63.95;12.70;;;;;;;3.26;93.16;97341.31;5068547;28;20047;-74
2021/12/14 03:41:03;;;;;;;52.20;13.13;;;;;;;3.20;93.19;97336.91;5069267;28;20052;-74
2021/12/14 03:43:30;;;;;;;32.50;11.02;;;;;;;3.18;93.30;97336.31;5067315;28;20048;-74
2021/12/14 03:45:58;;;;;;;32.72;12.25;;;;;;;3.22;93.45;97342.84;5069238;28;20044;-74
2021/12/14 03:48:27;;;;;;;48.03;12.98;;;;;;;3.20;93.49;97341.47;5068427;28;20059;-74
2021/12/14 03:50:54;;;;;;;43.75;11.32;;;;;;;3.17;93.62;97345.47;5069388;28;20787;-74
2021/12/14 03:53:22;;;;;;;36.10;11.43;;;;;;;3.17;93.49;97342.78;5068694;28;20063;-74
2021/12/14 03:55:51;;;;;;;34.13;11.50;;;;;;;3.19;93.83;97339.84;5069303;28;20048;-74
2021/12/14 03:58:23;;;;;;;34.40;12.40;;;;;;;3.20;93.54;97328.84;5068275;28;20049;-75
2021/12/14 04:00:53;;;;;;;32.20;12.10;;;;;;;3.20;93.60;97342.28;5069330;28;20491;-74
2021/12/14 04:03:21;;;;;;;54.83;14.27;;;;;;;3.18;93.98;97336.31;5068698;28;20056;-74
2021/12/14 04:05:48;;;;;;;37.97;12.27;;;;;;;3.15;93.70;97331.44;5068008;28;20048;-74
2021/12/14 04:08:17;;;;;;;31.48;12.20;;;;;;;3.20;94.01;97325.34;5068322;28;20052;-74
2021/12/14 04:10:48;;;;;;;32.28;12.38;;;;;;;3.23;93.95;97327.50;5069199;28;20437;-74
2021/12/14 04:13:16;;;;;;;39.25;12.07;;;;;;;3.29;93.99;97324.66;5067972;28;20063;-74
2021/12/14 04:15:44;;;;;;;39.15;12.35;;;;;;;3.28;93.81;97323.00;5068933;28;20063;-74
2021/12/14 04:18:11;;;;;;;53.45;13.60;;;;;;;3.28;93.80;97320.31;5068044;28;20044;-74
2021/12/14 04:20:41;;;;;;;38.70;13.20;;;;;;;3.21;93.61;97319.69;5068954;28;20056;-74
2021/12/14 04:23:11;;;;;;;43.85;14.45;;;;;;;3.24;93.96;97327.28;5067831;28;20058;-74
2021/12/14 04:25:38;;;;;;;46.67;14.43;;;;;;;3.24;94.16;97324.59;5068855;28;20691;-74
2021/12/14 04:28:09;;;;;;;38.22;14.75;;;;;;;3.27;94.03;97324.09;5067493;28;20047;-74
2021/12/14 04:30:37;;;;;;;43.78;14.45;;;;;;;3.31;93.96;97319.84;5068556;28;20040;-74
2021/12/14 04:33:08;;;;;;;40.33;14.35;;;;;;;3.29;93.48;97321.97;5067947;28;20048;-74
2021/12/14 04:35:38;;;;;;;42.40;13.85;;;;;;;3.26;93.09;97322.47;5068616;28;20048;-74
2021/12/14 04:38:13;;;;;;;34.75;11.93;;;;;;;3.23;92.76;97322.94;5067168;28;20047;-74
2021/12/14 04:54:21;;;;;;;49.83;9.85;;;;;;;2.59;93.68;97314.41;5047538;28;20411;-74
2021/12/14 04:56:48;;;;;;;24.60;9.85;;;;;;;2.63;93.87;97306.69;5048087;28;20049;-74
2021/12/14 04:59:19;;;;;;;44.13;10.75;;;;;;;2.71;93.82;97308.94;5046050;28;20083;-74
2021/12/14 05:01:48;;;;;;;46.58;10.50;;;;;;;2.69;93.53;97300.31;5047872;28;20056;-74
2021/12/14 05:04:19;;;;;;;47.42;11.52;;;;;;;2.63;93.15;97307.50;5047328;28;20053;-75
2021/12/14 05:06:50;;;;;;;40.45;10.68;;;;;;;2.58;92.92;97315.47;5047939;28;20056;-74
2021/12/14 05:09:21;;;;;;;33.13;10.90;;;;;;;2.61;93.25;97309.63;5047284;28;20049;-74
2021/12/14 05:11:48;;;;;;;27.27;9.85;;;;;;;2.56;92.77;97312.22;5047929;28;20543;-74
2021/12/14 05:14:15;;;;;;;40.72;10.35;;;;;;;2.48;92.26;97310.75;5046874;28;20049;-74
2021/12/14 05:16:42;;;;;;;28.83;9.43;;;;;;;2.30;91.58;97314.47;5047153;28;20053;-74
2021/12/14 05:19:11;;;;;;;37.22;9.75;;;;;;;2.21;91.66;97315.91;5046906;28;20051;-74
2021/12/14 05:21:41;;;;;;;29.27;8.75;;;;;;;2.14;91.82;97323.31;5047637;28;20049;-74
2021/12/14 05:24:10;;;;;;;23.45;9.13;;;;;;;2.08;92.18;97321.56;5046967;28;20052;-74
2021/12/14 05:26:38;;;;;;;24.83;9.02;;;;;;;2.07;92.43;97325.31;5047700;28;20071;-74
2021/12/14 05:29:05;;;;;;;20.45;8.48;;;;;;;1.96;91.89;97334.22;5046618;28;20152;-74
2021/12/14 05:31:33;;;;;;;20.65;8.07;;;;;;;1.94;92.11;97336.34;5047684;28;20052;-74
2021/12/14 05:33:59;;;;;;;18.67;6.90;;;;;;;1.85;91.97;97335.09;5047788;28;20534;-74
2021/12/14 05:36:27;;;;;;;28.88;8.45;;;;;;;1.73;91.90;97335.94;5047221;28;20056;-74
2021/12/14 05:39:01;;;;;;;30.23;6.50;;;;;;;1.63;92.37;97329.53;5047505;28;20128;-75
2021/12/14 05:44:17;;;;;;;27.58;5.63;;;;;;;1.60;92.76;97330.00;5066782;28;20771;-74
2021/12/14 05:46:50;;;;;;;25.60;6.07;;;;;;;1.66;92.79;97329.06;5067024;28;20068;-74
2021/12/14 05:49:18;;;;;;;19.15;6.47;;;;;;;1.74;92.96;97320.66;5066739;28;20600;-74
2021/12/14 05:51:45;;;;;;;19.75;6.63;;;;;;;1.79;93.06;97320.75;5067504;28;20052;-74
2021/12/14 05:54:18;;;;;;;24.70;6.50;;;;;;;1.83;92.83;97320.03;5066997;28;20045;-74
2021/12/14 05:56:45;;;;;;;40.92;7.68;;;;;;;1.86;92.42;97321.41;5067353;28;20040;-74
2021/12/14 05:59:11;;;;;;;50.72;7.82;;;;;;;1.86;92.17;97317.91;5066215;28;20070;-74
2021/12/14 06:01:38;;;;;;;66.25;7.93;;;;;;;1.85;92.23;97314.41;5067288;28;20796;-74
2021/12/14 06:04:07;;;;;;;16.23;6.63;;;;;;;1.89;92.65;97314.75;5066483;28;20424;-74
2021/12/14 06:06:37;;;;;;;42.75;7.80;;;;;;;1.87;92.38;97314.16;5067256;28;20055;-74
2021/12/14 06:09:07;;;;;;;52.50;7.05;;;;;;;1.93;92.72;97313.22;5066372;28;20040;-73
2021/12/14 06:11:36;;;;;;;57.80;7.38;;;;;;;1.97;92.67;97309.00;5067199;28;20041;-74
2021/12/14 06:14:03;;;;;;;40.13;6.45;;;;;;;2.00;92.60;97303.16;5066165;28;20045;-74
2021/12/14 06:16:33;;;;;;;56.67;8.65;;;;;;;1.98;92.08;97310.63;5067044;28;20056;-75
2021/12/14 06:19:16;;;;;;;82.93;7.68;;;;;;;1.88;92.04;97300.53;5066582;28;20076;-74
2021/12/14 06:21:44;;;;;;;53.50;8.27;;;;;;;1.89;92.40;97295.97;5067101;28;20041;-74
2021/12/14 06:24:11;;;;;;;89.38;8.60;;;;;;;1.86;92.87;97296.44;5066182;28;20048;-74
2021/12/14 06:26:42;;;;;;;83.30;8.98;;;;;;;1.85;93.14;97294.81;5066853;28;20056;-75
2021/12/14 06:29:12;;;;;;;55.38;8.52;;;;;;;1.80;93.34;97288.28;5067935;28;20059;-75
2021/12/14 06:31:41;;;;;;;36.00;8.13;;;;;;;1.81;93.67;97292.59;5070751;28;20052;-75
2021/12/14 06:34:16;;;;;;;31.70;7.90;;;;;;;1.84;93.71;97275.19;5069809;28;20045;-74
2021/12/14 06:37:27;;;;;;;43.80;7.85;;;;;;;1.93;94.21;97273.75;5070507;28;20056;-74
2021/12/14 06:40:04;;;;;;;60.22;8.23;;;;;;;1.89;93.89;97286.03;5070172;28;20051;-76
2021/12/14 06:42:33;;;;;;;28.75;8.13;;;;;;;1.90;93.85;97281.47;5068841;28;20044;-73
2021/12/14 06:45:07;;;;;;;23.58;6.78;;;;;;;1.93;94.09;97286.34;5070237;28;20435;-73
2021/12/14 06:47:33;;;;;;;44.83;8.00;;;;;;;1.94;94.09;97279.94;5069825;28;20048;-73
2021/12/14 06:50:00;;;;;;;42.45;7.60;;;;;;;1.95;93.76;97289.63;5070175;28;20507;-73
2021/12/14 06:52:27;;;;;;;30.85;7.75;;;;;;;2.01;93.93;97284.09;5068900;28;20048;-74
2021/12/14 06:54:54;;;;;;;38.97;7.78;;;;;;;2.07;93.88;97282.31;5069676;28;20052;-73
2021/12/14 06:57:21;;;;;;;26.90;7.18;;;;;;;2.14;93.82;97280.31;5067219;28;20049;-73
2021/12/14 06:59:49;;;;;;;37.35;8.20;;;;;;;2.12;93.42;97278.91;5070184;28;20058;-73
2021/12/14 07:02:16;;;;;;;38.10;8.20;;;;;;;2.07;93.28;97277.75;5069126;28;20067;-73
2021/12/14 07:04:49;;;;;;;53.35;7.95;;;;;;;2.02;93.21;97274.97;5070273;28;20508;-73
2021/12/14 07:07:19;;;;;;;25.10;7.68;;;;;;;2.05;93.67;97276.38;5069232;28;20114;-73
2021/12/14 07:09:51;;;;;;;49.90;8.82;;;;;;;2.13;93.94;97270.59;5070197;28;20040;-73
2021/12/14 07:12:20;;;;;;;63.03;8.77;;;;;;;2.11;93.46;97272.72;5069534;28;20056;-73
2021/12/14 07:15:08;;;;;;;40.30;8.45;;;;;;;2.08;93.28;97278.56;5069704;28;20040;-73
2021/12/14 07:17:42;;;;;;;36.90;8.68;;;;;;;2.08;93.62;97278.56;5069470;28;20098;-73
2021/12/14 07:20:21;;;;;;;34.00;8.40;;;;;;;2.13;94.09;97281.34;5069240;28;20507;-73
2021/12/14 07:22:50;;;;;;;35.47;7.88;;;;;;;2.18;94.10;97278.75;5070051;28;20128;-74
2021/12/14 07:25:23;;;;;;;60.10;9.63;;;;;;;2.20;93.76;97287.41;5069596;28;20389;-73
2021/12/14 07:27:50;;;;;;;29.27;7.18;;;;;;;2.19;93.27;97290.31;5069837;28;20060;-73
2021/12/14 07:30:22;;;;;;;48.63;8.35;;;;;;;2.17;93.34;97287.88;5069297;28;20048;-73
2021/12/14 07:32:52;;;;;;;48.92;8.88;;;;;;;2.18;93.47;97284.13;5070006;28;20055;-74
2021/12/14 07:35:27;;;;;;;55.53;9.27;;;;;;;2.28;93.80;97281.63;5069521;28;20040;-73
2021/12/14 07:37:55;;;;;;;41.05;8.05;;;;;;;2.28;93.40;97287.00;5069465;28;20040;-73
2021/12/14 07:40:24;;;;;;;35.97;9.05;;;;;;;2.30;93.16;97290.28;5068741;28;20151;-73
2021/12/14 07:43:06;;;;;;;26.02;8.45;;;;;;;2.33;93.47;97302.41;5069308;28;20079;-72
2021/12/14 07:45:35;;;;;;;68.65;10.35;;;;;;;2.34;93.32;97299.47;5069148;28;20657;-73
2021/12/14 07:48:01;;;;;;;49.63;8.30;;;;;;;2.34;92.93;97304.84;5068579;28;20423;-73
2021/12/14 07:50:41;;;;;;;36.00;9.27;;;;;;;2.41;93.26;97303.91;5069037;28;20056;-75
2021/12/14 07:53:08;;;;;;;47.55;7.78;;;;;;;2.41;92.72;97312.78;5068813;28;20045;-73
2021/12/14 07:55:39;;;;;;;48.35;8.35;;;;;;;2.38;92.40;97315.13;5069323;28;20561;-74
2021/12/14 07:58:06;;;;;;;34.90;8.68;;;;;;;2.44;92.63;97311.47;5068231;28;20044;-73
2021/12/14 08:00:40;;;;;;;34.20;8.77;;;;;;;2.54;93.05;97315.13;5068993;28;20048;-73
2021/12/14 08:03:08;;;;;;;44.42;8.00;;;;;;;2.53;92.27;97318.09;5067165;28;20139;-73
2021/12/14 08:05:37;;;;;;;61.03;8.60;;;;;;;2.46;91.79;97306.69;5068844;28;20063;-73
2021/12/14 08:08:09;;;;;;;41.60;7.88;;;;;;;2.41;91.66;97317.34;5068010;28;20049;-73
2021/12/14 08:10:40;;;;;;;42.07;6.40;;;;;;;2.41;92.10;97314.66;5068685;28;20055;-73
2021/12/14 08:13:09;;;;;;;21.63;7.47;;;;;;;2.48;92.56;97309.94;5068014;28;20662;-74
2021/12/14 08:15:41;;;;;;;22.45;6.95;;;;;;;2.51;92.60;97298.69;5068406;28;20495;-73
2021/12/14 08:18:10;;;;;;;45.92;7.80;;;;;;;2.57;93.05;97297.72;5067663;28;20044;-73
2021/12/14 08:20:41;;;;;;;26.10;7.72;;;;;;;2.58;92.65;97302.84;5068625;28;20596;-72
2021/12/14 08:23:17;;;;;;;38.97;7.70;;;;;;;2.51;91.92;97296.00;5067239;28;20044;-73
2021/12/14 08:25:43;;;;;;;32.25;8.05;;;;;;;2.50;92.00;97294.34;5048559;28;20455;-73
2021/12/14 08:28:11;;;;;;;30.45;7.93;;;;;;;2.53;92.17;97291.19;5047693;28;20812;-73
2021/12/14 08:30:45;;;;;;;46.53;7.22;;;;;;;2.54;91.92;97292.81;5051965;28;20055;-75
2021/12/14 08:33:21;;;;;;;47.03;7.35;;;;;;;2.49;91.52;97298.91;5067991;28;20057;-74
2021/12/14 08:35:49;;;;;;;45.70;7.10;;;;;;;2.49;91.72;97306.19;5068563;28;20052;-74
2021/12/14 08:38:18;;;;;;;61.22;7.57;;;;;;;2.49;91.98;97296.22;5066998;28;20048;-74
2021/12/14 08:40:48;;;;;;;62.45;8.18;;;;;;;2.55;91.66;97294.44;5068433;28;20458;-73
2021/12/14 08:43:23;;;;;;;36.70;7.05;;;;;;;2.57;91.64;97282.41;5066497;28;20057;-74
2021/12/14 08:45:57;;;;;;;25.50;7.10;;;;;;;2.62;91.59;97276.28;5066291;28;20072;-73
2021/12/14 08:48:29;;;;;;;37.45;7.82;;;;;;;2.66;91.61;97271.22;5067340;28;20850;-73
2021/12/14 08:51:02;;;;;;;26.00;5.72;;;;;;;2.76;92.15;97271.38;5068078;28;20053;-74
2021/12/14 08:53:31;;;;;;;45.15;7.47;;;;;;;2.74;90.56;97266.25;5068008;28;20496;-74
2021/12/14 08:55:59;;;;;;;22.90;4.97;;;;;;;2.77;90.47;97265.78;5068074;28;20190;-73
2021/12/14 08:58:28;;;;;;;21.35;5.35;;;;;;;2.79;89.93;97274.41;5067155;28;20045;-74
2021/12/14 09:01:00;;;;;;;13.93;5.28;;;;;;;2.71;89.26;97272.13;5067815;28;20083;-74
2021/12/14 09:03:32;;;;;;;23.50;4.65;;;;;;;2.70;89.24;97275.88;5067274;28;20055;-73
2021/12/14 09:06:01;;;;;;;14.93;4.43;;;;;;;2.61;89.05;97288.94;5068102;28;20070;-74
2021/12/14 09:08:28;;;;;;;9.05;4.43;;;;;;;2.53;89.66;97292.00;5066723;28;20049;-73
2021/12/14 09:10:57;;;;;;;9.65;4.75;;;;;;;2.61;90.17;97298.88;5068055;28;20051;-73
2021/12/14 09:13:25;;;;;;;26.00;4.70;;;;;;;2.64;90.20;97301.06;5067008;28;20049;-74
2021/12/14 09:15:55;;;;;;;12.65;3.72;;;;;;;2.63;89.98;97291.38;5067785;28;20040;-74
2021/12/14 09:18:27;;;;;;;9.40;4.40;;;;;;;2.59;89.37;97295.59;5066570;28;20059;-74
2021/12/14 09:20:59;;;;;;;17.00;5.10;;;;;;;2.58;89.70;97283.22;5067864;28;20040;-73
2021/12/14 09:23:28;;;;;;;21.40;4.65;;;;;;;2.67;90.40;97283.63;5067112;28;20045;-74
2021/12/14 09:25:55;;;;;;;9.73;4.38;;;;;;;2.65;89.83;97299.19;5067812;28;20056;-73
2021/12/14 09:28:25;;;;;;;9.07;4.45;;;;;;;2.70;89.99;97297.38;5066526;28;20056;-73
2021/12/14 09:30:57;;;;;;;8.60;4.50;;;;;;;2.72;89.94;97292.59;5067641;28;20059;-73
2021/12/14 09:33:26;;;;;;;11.00;4.53;;;;;;;2.77;89.79;97292.69;5067068;28;20441;-74
2021/12/14 09:35:56;;;;;;;14.43;5.45;;;;;;;2.78;89.95;97296.19;5067549;28;20135;-74
2021/12/14 09:38:31;;;;;;;14.82;4.57;;;;;;;2.83;90.36;97280.94;5063895;28;20127;-74
2021/12/14 09:41:00;;;;;;;13.40;4.95;;;;;;;2.95;90.26;97288.09;5067502;28;20135;-73
2021/12/14 09:43:26;;;;;;;9.25;4.95;;;;;;;3.02;90.28;97289.53;5066372;28;20067;-73
2021/12/14 09:45:55;;;;;;;12.30;4.50;;;;;;;3.10;90.50;97288.31;5067239;28;20048;-73
2021/12/14 09:48:28;;;;;;;14.32;5.05;;;;;;;3.11;90.00;97279.19;5066477;28;20082;-74
2021/12/14 09:50:56;;;;;;;15.55;5.88;;;;;;;3.14;90.21;97273.31;5067341;28;20102;-73
2021/12/14 09:53:26;;;;;;;14.45;5.32;;;;;;;3.27;90.81;97264.06;5067020;28;20048;-73
2021/12/14 09:55:55;;;;;;;20.17;5.47;;;;;;;3.34;91.08;97256.59;5067451;28;20060;-73
2021/12/14 09:58:26;;;;;;;13.88;5.50;;;;;;;3.50;90.82;97263.84;5066721;28;20234;-74
2021/12/14 10:00:56;;;;;;;12.93;5.07;;;;;;;3.60;90.51;97263.97;5067299;28;20047;-74
2021/12/14 10:03:23;;;;;;;14.63;6.20;;;;;;;3.67;90.25;97259.19;5067803;28;20133;-75
2021/12/14 10:05:55;;;;;;;14.15;5.43;;;;;;;3.74;89.75;97253.59;5071298;28;20045;-74
2021/12/14 10:08:25;;;;;;;12.35;6.53;;;;;;;3.79;89.45;97259.03;5070606;28;20059;-74
2021/12/14 10:11:01;;;;;;;13.18;6.13;;;;;;;3.90;89.88;97252.69;5071629;28;20126;-74
2021/12/14 10:13:28;;;;;;;11.88;6.55;;;;;;;3.98;89.84;97250.63;5057390;28;20496;-73
2021/12/14 10:15:58;;;;;;;10.10;6.18;;;;;;;4.01;89.19;97248.22;5071403;28;20097;-74
2021/12/14 10:18:28;;;;;;;9.40;5.47;;;;;;;4.00;88.81;97252.00;5070544;28;20415;-73
2021/12/14 10:21:01;;;;;;;9.32;5.28;;;;;;;3.96;88.88;97256.25;5071071;28;20044;-74
2021/12/14 10:23:28;;;;;;;9.93;4.97;;;;;;;4.00;89.37;97268.16;5071158;28;20052;-74
2021/12/14 10:25:56;;;;;;;8.73;5.32;;;;;;;4.08;89.74;97275.00;5070853;28;20045;-73
2021/12/14 10:28:25;;;;;;;8.13;4.93;;;;;;;4.19;89.96;97260.56;5070199;28;20044;-73
2021/12/14 10:30:57;;;;;;;7.85;4.90;;;;;;;4.16;88.69;97258.34;5071117;28;20240;-74
2021/12/14 10:33:25;;;;;;;8.25;5.20;;;;;;;4.19;89.02;97257.84;5070381;28;20075;-73
2021/12/14 10:35:59;;;;;;;9.85;5.88;;;;;;;4.30;89.77;97250.69;5071123;28;20049;-73
2021/12/14 10:38:31;;;;;;;7.07;4.50;;;;;;;4.38;88.97;97250.19;5069875;28;20044;-74
2021/12/14 10:43:50;;;;;;;9.05;5.50;;;;;;;4.47;88.07;97247.84;5069961;28;20059;-74
2021/12/14 10:46:21;;;;;;;11.52;6.20;;;;;;;4.63;88.93;97250.41;5070316;28;20045;-73
2021/12/14 10:48:51;;;;;;;9.07;5.70;;;;;;;4.72;88.33;97264.25;5069910;28;20499;-74
2021/12/14 10:51:22;;;;;;;9.88;6.35;;;;;;;4.84;88.11;97266.75;5070429;28;20045;-74
2021/12/14 10:53:53;;;;;;;10.70;6.65;;;;;;;4.78;87.18;97268.59;5070775;28;20090;-74
2021/12/14 10:56:22;;;;;;;8.93;5.60;;;;;;;4.78;86.56;97268.59;5070390;28;20056;-73
2021/12/14 10:58:54;;;;;;;11.57;6.90;;;;;;;4.83;86.92;97265.94;5070198;28;20519;-74
2021/12/14 11:01:27;;;;;;;10.52;6.00;;;;;;;4.91;86.34;97273.56;5070096;28;20575;-73
2021/12/14 11:03:59;;;;;;;11.05;6.30;;;;;;;4.88;85.15;97275.97;5069891;28;20048;-73
2021/12/14 11:06:31;;;;;;;6.43;4.30;;;;;;;4.90;86.06;97282.72;5069776;28;20055;-73
2021/12/14 11:09:39;;;;;;;8.27;5.47;;;;;;;4.84;84.46;97272.97;5069758;28;20048;-73
2021/12/14 11:11:51;;;;;;;10.65;6.20;;;;;;;4.83;84.68;97265.94;5069882;28;20488;-74
2021/12/14 11:14:22;;;;;;;11.15;6.50;;;;;;;4.92;85.81;97248.22;5068939;28;20083;-73
2021/12/14 11:19:40;;;;;;;10.13;6.25;;;;;;;5.04;84.09;97258.00;5069913;28;20055;-74
2021/12/14 11:22:12;;;;;;;9.77;6.10;;;;;;;5.07;83.56;97254.78;5069576;28;20040;-73
2021/12/14 11:24:39;;;;;;;11.00;6.82;;;;;;;5.06;84.01;97253.13;5070063;28;20045;-73
2021/12/14 11:27:13;;;;;;;9.90;6.68;;;;;;;5.03;83.92;97264.47;5069361;28;20044;-73
2021/12/14 11:29:40;;;;;;;10.93;7.22;;;;;;;5.10;85.19;97276.66;5069497;28;20048;-73
2021/12/14 11:32:08;;;;;;;14.80;7.93;;;;;;;5.14;85.73;97266.16;5069805;28;20602;-73
2021/12/14 11:34:37;;;;;;;11.23;7.88;;;;;;;5.09;84.47;97258.03;5070165;28;20064;-73
2021/12/14 11:37:11;;;;;;;11.18;7.07;;;;;;;5.09;82.90;97244.53;5069141;28;20087;-73
2021/12/14 11:39:42;;;;;;;11.05;7.22;;;;;;;5.07;82.95;97249.38;5069582;28;20048;-74
2021/12/14 11:42:11;;;;;;;11.55;7.68;;;;;;;5.15;84.24;97251.56;5069213;28;20047;-73
2021/12/14 11:44:39;;;;;;;11.77;7.45;;;;;;;5.08;83.33;97251.81;5069175;28;20067;-75
2021/12/14 11:47:12;;;;;;;12.85;8.18;;;;;;;5.07;84.00;97254.78;5068989;28;20048;-73
2021/12/14 11:49:48;;;;;;;13.88;8.90;;;;;;;5.05;84.03;97249.63;5069665;28;20052;-74
2021/12/14 11:52:34;;;;;;;13.35;8.23;;;;;;;5.17;84.52;97249.44;5068992;28;20052;-73
2021/12/14 11:55:15;;;;;;;15.40;9.40;;;;;;;5.14;83.39;97247.25;5069504;28;20044;-73
2021/12/14 11:57:41;;;;;;;16.77;9.30;;;;;;;5.09;83.00;97247.22;5069477;28;20052;-73
2021/12/14 12:00:15;;;;;;;15.05;8.70;;;;;;;4.97;83.75;97242.84;5068356;28;20044;-73
2021/12/14 12:02:42;;;;;;;14.32;8.60;;;;;;;5.04;84.62;97239.09;5069531;28;20049;-73
2021/12/14 12:05:17;;;;;;;18.45;10.00;;;;;;;5.08;84.68;97240.22;5068526;28;20427;-73
2021/12/14 12:10:40;;;;;;;18.88;9.40;;;;;;;5.00;84.76;97254.19;5068605;28;20078;-74
2021/12/14 12:13:06;;;;;;;24.83;13.43;;;;;;;5.03;84.67;97254.47;5068290;28;20053;-73
2021/12/14 12:15:40;;;;;;;20.23;11.32;;;;;;;4.96;84.75;97257.41;5069102;28;20055;-73
2021/12/14 12:18:06;;;;;;;;;;;;;;;4.91;84.86;97262.78;5069157;28;20048;-73
2021/12/14 12:20:35;;;;;;;16.27;9.10;;;;;;;4.89;84.87;97259.50;5068829;28;20295;-73